Time;durP1;ratioP1;P1;durP2;ratioP2;P2;SDS_P1;SDS_P2;PMS_P1;PMS_P2;Temp;Humidity;BMP_temperature;BMP_pressure;BME280_temperature;BME280_humidity;BME280_pressure;Samples;Min_cycle;Max_cycle;Signal;HPM_P1;HPM_P2
2022/04/22 00:04:40;;;;;;;83.50;44.25;;;;;;;7.13;78.76;98518.89;4020839;86;21047;-88
2022/04/22 00:11:29;;;;;;;80.12;42.98;;;;;;;7.10;78.64;98510.09;4018840;86;21111;-88
2022/04/22 00:16:45;;;;;;;86.67;47.75;;;;;;;7.09;78.97;98503.66;4025592;86;21112;-92
2022/04/22 00:22:47;;;;;;;74.87;42.43;;;;;;;7.10;79.28;98492.97;4029689;86;22125;-87
2022/04/22 00:28:48;;;;;;;75.67;43.02;;;;;;;7.03;78.58;98488.19;4025197;86;21577;-88
2022/04/22 00:34:52;;;;;;;68.65;41.65;;;;;;;6.97;78.93;98486.16;4022508;86;21047;-87
2022/04/22 00:40:55;;;;;;;74.95;41.20;;;;;;;6.95;79.85;98481.65;4032008;85;21092;-87
2022/04/22 00:46:56;;;;;;;74.67;43.48;;;;;;;6.98;80.01;98476.27;4030065;86;21026;-89
2022/04/22 00:52:58;;;;;;;71.42;42.30;;;;;;;6.94;80.23;98463.16;4026420;86;21071;-90
2022/04/22 00:59:00;;;;;;;76.92;43.98;;;;;;;6.94;80.06;98465.12;4030385;86;21510;-93
2022/04/22 01:11:22;;;;;;;79.82;44.70;;;;;;;6.84;80.56;98451.55;4020094;86;21132;-87
2022/04/22 01:17:23;;;;;;;66.67;40.75;;;;;;;6.84;81.15;98462.43;3922456;89;21135;-89
2022/04/22 01:23:25;;;;;;;81.12;46.98;;;;;;;6.80;81.39;98464.85;4088955;85;21044;-89
2022/04/22 01:29:26;;;;;;;78.45;45.80;;;;;;;6.81;80.68;98466.44;4079641;85;21129;-91
2022/04/22 01:35:27;;;;;;;77.53;44.18;;;;;;;6.76;81.41;98453.93;4086127;85;21085;-88
2022/04/22 01:41:29;;;;;;;82.37;46.70;;;;;;;6.76;81.12;98451.20;4088003;85;21830;-89
2022/04/22 01:47:31;;;;;;;70.97;41.85;;;;;;;6.71;81.29;98444.70;4087698;85;21027;-89
2022/04/22 01:53:32;;;;;;;69.03;41.75;;;;;;;6.71;81.83;98452.06;4086475;85;21051;-88
2022/04/22 01:59:34;;;;;;;70.57;42.48;;;;;;;6.68;82.01;98454.95;4086621;85;21059;-88
2022/04/22 02:05:35;;;;;;;66.30;40.55;;;;;;;6.69;82.36;98455.75;4081186;85;21129;-90
2022/04/22 02:11:36;;;;;;;69.17;39.90;;;;;;;6.81;82.06;98448.76;4079149;85;21086;-87
2022/04/22 02:17:38;;;;;;;69.22;41.50;;;;;;;6.74;82.32;98441.83;4090669;85;21072;-91
2022/04/22 02:23:40;;;;;;;72.72;42.17;;;;;;;6.75;82.42;98419.70;4031578;86;21056;-87
2022/04/22 02:29:41;;;;;;;69.45;38.63;;;;;;;6.77;82.62;98418.77;4014095;86;21062;-87
2022/04/22 02:35:43;;;;;;;71.22;41.80;;;;;;;6.67;82.23;98410.44;4022737;86;21553;-89
2022/04/22 02:48:05;;;;;;;68.12;41.05;;;;;;;6.60;82.60;98424.69;3989727;87;21083;-90
2022/04/22 02:54:06;;;;;;;78.92;44.08;;;;;;;6.52;82.71;98426.28;4018728;86;21068;-94
2022/04/22 03:00:08;;;;;;;75.87;43.98;;;;;;;6.56;83.42;98418.42;4001045;87;21037;-91
2022/04/22 03:06:10;;;;;;;69.80;40.45;;;;;;;6.58;83.44;98415.34;4001690;87;21130;-88
2022/04/22 03:12:15;;;;;;;73.45;42.43;;;;;;;6.52;83.53;98405.31;4018863;87;21648;-88
2022/04/22 03:18:20;;;;;;;67.85;38.53;;;;;;;6.52;83.88;98397.16;4017067;87;21178;-87
2022/04/22 03:24:22;;;;;;;72.67;40.35;;;;;;;6.55;83.51;98399.16;4016740;87;21612;-87
2022/04/22 03:30:23;;;;;;;70.57;40.33;;;;;;;6.50;83.61;98404.12;4014440;85;34666;-87
2022/04/22 03:36:24;;;;;;;72.27;43.17;;;;;;;6.52;84.04;98401.80;4028951;86;21057;-89
2022/04/22 03:42:28;;;;;;;78.28;45.23;;;;;;;6.51;84.26;98394.80;4030375;86;21056;-87
2022/04/22 03:48:29;;;;;;;69.60;42.95;;;;;;;6.55;84.41;98399.16;4029913;86;21711;-89
2022/04/22 03:54:32;;;;;;;73.10;43.63;;;;;;;6.58;84.29;98380.75;4016679;86;21113;-89
2022/04/22 04:00:34;;;;;;;71.53;42.13;;;;;;;6.62;84.63;98386.25;4034828;86;21058;-89
2022/04/22 04:06:35;;;;;;;78.97;45.08;;;;;;;6.65;84.82;98380.88;4038601;86;21081;-87
2022/04/22 04:23:14;;;;;;;67.10;43.00;;;;;;;6.68;84.86;98386.95;4044780;86;21156;-87
2022/04/22 04:24:59;;;;;;;66.17;39.35;;;;;;;6.72;85.17;98390.50;4040637;86;21173;-88
2022/04/22 04:31:04;;;;;;;62.90;39.00;;;;;;;6.83;85.32;98395.55;4043067;86;21097;-88
2022/04/22 04:37:06;;;;;;;71.07;44.80;;;;;;;6.93;85.34;98401.74;4047167;86;21079;-87
2022/04/22 04:43:07;;;;;;;67.62;40.03;;;;;;;7.03;85.53;98407.14;4051545;86;21650;-90
2022/04/22 04:49:09;;;;;;;70.03;40.52;;;;;;;7.10;84.86;98412.11;4059293;86;21324;-86
2022/04/22 04:55:16;;;;;;;67.37;41.48;;;;;;;7.17;85.12;98417.65;4052740;86;21111;-89
2022/04/22 05:01:15;;;;;;;69.82;41.28;;;;;;;7.30;85.09;98426.40;4051020;86;22040;-90
2022/04/22 05:07:16;;;;;;;64.70;41.10;;;;;;;7.43;85.08;98435.94;4055412;86;21658;-91
2022/04/22 05:13:18;;;;;;;73.37;42.10;;;;;;;7.54;85.54;98426.77;4048427;86;21983;-87
2022/04/22 05:19:21;;;;;;;73.02;43.38;;;;;;;7.65;85.84;98426.91;4050958;86;21013;-87
2022/04/22 05:25:23;;;;;;;70.85;41.18;;;;;;;7.80;85.60;98419.12;4109128;84;36355;-88
2022/04/22 05:37:50;;;;;;;69.00;39.65;;;;;;;8.07;85.48;98421.99;4125978;84;21047;-87
2022/04/22 05:43:51;;;;;;;63.60;37.13;;;;;;;8.18;85.60;98418.81;4124763;84;21110;-90
2022/04/22 05:49:53;;;;;;;60.98;35.25;;;;;;;8.35;85.37;98416.12;4124868;84;21047;-88
2022/04/22 05:55:54;;;;;;;55.98;33.48;;;;;;;8.54;85.60;98404.42;4129915;84;21134;-87
2022/04/22 06:01:56;;;;;;;55.58;31.45;;;;;;;8.69;85.21;98399.88;4119010;85;22192;-87
2022/04/22 06:14:17;;;;;;;42.65;26.82;;;;;;;8.95;85.15;98382.75;4120192;84;21623;-89
2022/04/22 06:20:21;;;;;;;45.80;27.82;;;;;;;9.07;85.06;98374.83;4096271;85;21203;-88
2022/04/22 06:26:22;;;;;;;37.85;24.98;;;;;;;9.16;85.09;98384.26;4092712;85;21673;-90
2022/04/22 06:32:27;;;;;;;34.60;22.13;;;;;;;9.31;85.68;98390.61;4085193;85;21044;-88
2022/04/22 06:38:29;;;;;;;33.40;22.73;;;;;;;9.34;85.18;98385.75;4100099;85;21132;-87
2022/04/22 06:50:53;;;;;;;36.05;22.07;;;;;;;9.76;85.03;98385.97;4105385;85;21044;-93
2022/04/22 06:56:55;;;;;;;34.18;21.17;;;;;;;9.98;84.92;98373.95;4090488;85;21064;-89
2022/04/22 07:02:57;;;;;;;32.53;20.20;;;;;;;10.19;84.53;98384.21;4104852;85;21103;-92
2022/04/22 07:08:59;;;;;;;35.50;20.05;;;;;;;10.42;84.36;98380.55;4089930;85;21076;-91
2022/04/22 07:15:03;;;;;;;30.70;19.07;;;;;;;10.48;84.06;98386.63;4109308;85;21063;-88
2022/04/22 07:21:05;;;;;;;32.05;20.97;;;;;;;10.53;83.82;98390.35;4100064;85;21080;-88
2022/04/22 07:27:06;;;;;;;29.90;19.77;;;;;;;10.60;83.70;98388.98;4016952;87;21168;-87
2022/04/22 07:33:09;;;;;;;28.40;17.62;;;;;;;10.69;83.56;98389.40;4094763;85;21083;-90
2022/04/22 07:39:11;;;;;;;29.12;18.05;;;;;;;10.75;83.19;98389.20;4093795;85;21152;-88
2022/04/22 07:51:36;;;;;;;32.25;20.27;;;;;;;10.85;82.61;98391.75;4107281;86;21052;-90
2022/04/22 07:57:37;;;;;;;37.90;22.87;;;;;;;10.86;82.43;98386.47;4098590;85;21088;-91
2022/04/22 08:03:39;;;;;;;36.20;23.38;;;;;;;10.95;82.45;98388.22;4099055;85;21059;-88
2022/04/22 08:09:42;;;;;;;38.98;24.98;;;;;;;11.00;81.98;98387.83;4095338;85;21627;-88
2022/04/22 08:15:43;;;;;;;33.98;23.77;;;;;;;10.99;81.78;98378.06;4104988;85;21052;-89
2022/04/22 08:21:44;;;;;;;35.23;25.02;;;;;;;11.10;81.65;98379.60;4089773;85;21095;-89
2022/04/22 08:27:52;;;;;;;37.80;24.05;;;;;;;11.26;81.44;98381.17;4098407;85;21081;-91
2022/04/22 08:33:56;;;;;;;40.98;26.07;;;;;;;11.49;81.15;98377.40;4094916;86;21083;-89
2022/04/22 08:39:57;;;;;;;43.25;27.93;;;;;;;11.69;80.74;98372.48;4109531;85;21092;-87
2022/04/22 08:45:58;;;;;;;40.73;26.05;;;;;;;11.81;80.59;98363.02;4091820;85;21063;-88
2022/04/22 08:52:00;;;;;;;42.78;25.95;;;;;;;11.92;79.75;98371.41;4097829;85;21076;-90
2022/04/22 08:58:05;;;;;;;36.65;24.43;;;;;;;12.03;79.66;98369.98;4101592;85;21607;-91
2022/04/22 09:04:06;;;;;;;33.70;22.48;;;;;;;12.17;79.28;98363.05;4091661;85;21723;-91
2022/04/22 09:10:10;;;;;;;32.33;21.95;;;;;;;12.27;78.23;98356.73;4097465;85;21055;-87
2022/04/22 09:16:22;;;;;;;40.38;24.37;;;;;;;12.58;78.42;98351.62;4058343;85;21086;-89
2022/04/22 09:22:26;;;;;;;39.60;23.80;;;;;;;12.89;77.38;98352.58;4137682;84;21159;-89
2022/04/22 09:28:27;;;;;;;40.45;24.82;;;;;;;12.79;76.77;98353.44;4069463;86;21986;-90
2022/04/22 09:34:39;;;;;;;34.83;23.55;;;;;;;12.70;76.38;98338.77;4017639;87;21098;-89
2022/04/22 09:47:12;;;;;;;42.08;25.05;;;;;;;13.30;74.39;98339.64;4079232;86;21065;-88
2022/04/22 09:53:16;;;;;;;39.50;24.90;;;;;;;13.16;73.71;98346.07;4147526;84;21136;-88
2022/04/22 09:59:30;;;;;;;43.63;26.30;;;;;;;13.42;73.20;98357.78;4142507;84;21051;-92
2022/04/22 10:05:32;;;;;;;38.80;25.15;;;;;;;13.47;73.50;98364.80;4072844;86;22183;-89
2022/04/22 10:11:34;;;;;;;35.80;24.23;;;;;;;13.47;72.64;98373.05;4025004;87;21083;-87
2022/04/22 10:17:38;;;;;;;36.98;22.98;;;;;;;13.14;72.54;98374.55;4077785;85;21091;-93
2022/04/22 10:23:40;;;;;;;35.90;22.50;;;;;;;12.84;72.84;98386.76;4089773;85;21532;-89
2022/04/22 10:29:43;;;;;;;36.10;22.35;;;;;;;12.56;72.50;98405.56;4012608;86;22246;-89
2022/04/22 10:35:46;;;;;;;31.20;19.92;;;;;;;12.24;72.80;98392.63;4029248;86;21091;-87
2022/04/22 10:41:49;;;;;;;32.75;20.02;;;;;;;12.27;73.02;98380.06;4022193;86;21165;-89
2022/04/22 10:47:51;;;;;;;27.93;19.27;;;;;;;12.38;72.95;98386.27;3985178;87;21337;-94
2022/04/22 10:53:54;;;;;;;28.90;19.42;;;;;;;12.45;72.86;98386.21;3979993;87;21576;-88
2022/04/22 11:00:18;;;;;;;26.00;18.10;;;;;;;12.49;72.79;98358.16;3980330;87;21104;-89
2022/04/22 11:06:21;;;;;;;32.45;19.37;;;;;;;12.86;72.02;98351.41;4010098;87;21096;-88
2022/04/22 11:12:52;;;;;;;27.07;18.32;;;;;;;13.02;72.03;98339.91;4019356;86;21005;-88
2022/04/22 11:19:21;;;;;;;31.52;20.90;;;;;;;13.42;71.51;98332.27;4097774;85;21124;-91
2022/04/22 11:25:29;;;;;;;32.45;20.70;;;;;;;13.90;71.04;98337.00;4110846;85;21135;-90
2022/04/22 11:31:34;;;;;;;32.38;20.37;;;;;;;14.22;70.18;98331.84;4098282;85;21135;-91
2022/04/22 11:37:37;;;;;;;32.60;19.55;;;;;;;14.00;70.34;98330.59;4243644;82;21063;-88
2022/04/22 11:43:39;;;;;;;31.75;20.48;;;;;;;13.92;70.12;98327.13;4248021;82;21074;-87
2022/04/22 11:49:40;;;;;;;32.58;19.85;;;;;;;13.97;69.33;98327.27;4242885;82;22462;-90
2022/04/22 11:55:43;;;;;;;28.50;19.95;;;;;;;13.92;68.90;98323.01;4237008;82;21080;-89
2022/04/22 12:08:11;;;;;;;28.62;16.65;;;;;;;13.73;68.46;98307.13;4171569;82;35637;-90
2022/04/22 12:14:23;;;;;;;26.85;18.42;;;;;;;13.47;69.01;98301.56;3975959;87;21106;-90
2022/04/22 12:20:26;;;;;;;24.75;15.35;;;;;;;13.52;68.56;98291.48;3993852;86;22552;-86
2022/04/22 12:26:34;;;;;;;24.52;14.98;;;;;;;13.44;68.60;98293.55;3990735;86;21126;-88
2022/04/22 12:32:39;;;;;;;26.87;15.68;;;;;;;13.30;68.86;98290.95;4012634;86;21091;-90
2022/04/22 12:38:41;;;;;;;21.68;14.03;;;;;;;13.23;68.57;98291.05;4006838;86;22319;-87
2022/04/22 12:52:08;;;;;;;20.62;13.15;;;;;;;13.11;68.51;98288.80;4007931;86;21048;-88
2022/04/22 12:57:19;;;;;;;16.12;10.82;;;;;;;13.15;68.45;98284.64;4015822;86;20099;-87
2022/04/22 13:03:21;;;;;;;20.00;12.73;;;;;;;13.14;67.63;98280.35;4008663;86;21748;-86
2022/04/22 13:09:23;;;;;;;20.08;11.80;;;;;;;13.10;67.91;98275.47;3996540;86;22156;-89
2022/04/22 13:15:25;;;;;;;13.58;9.43;;;;;;;13.13;67.52;98271.31;4017556;86;21111;-87
2022/04/22 13:21:27;;;;;;;15.75;10.10;;;;;;;13.16;67.25;98265.59;4027845;86;21131;-88
2022/04/22 13:27:28;;;;;;;19.48;13.32;;;;;;;13.06;67.20;98266.50;4034446;86;21135;-87
2022/04/22 13:33:34;;;;;;;27.58;18.20;;;;;;;13.06;66.80;98267.88;4012256;86;21053;-87
2022/04/22 13:39:35;;;;;;;33.50;21.10;;;;;;;12.94;67.08;98275.20;4013934;86;21092;-90
2022/04/22 13:58:17;;;;;;;33.38;22.00;;;;;;;11.78;70.07;98300.16;4019929;86;21136;-91
2022/04/22 14:04:19;;;;;;;34.80;22.52;;;;;;;11.39;71.62;98295.98;4024933;86;21033;-87
2022/04/22 14:10:20;;;;;;;41.18;24.55;;;;;;;10.95;71.94;98317.02;4032068;86;21103;-91
2022/04/22 14:16:22;;;;;;;35.35;22.93;;;;;;;10.78;74.16;98312.34;4046369;86;21038;-90
2022/04/22 14:22:23;;;;;;;38.78;25.68;;;;;;;10.49;74.21;98306.69;4003080;87;21060;-88
2022/04/22 14:28:27;;;;;;;38.30;25.00;;;;;;;10.30;75.04;98308.43;4043463;86;22491;-88
2022/04/22 14:34:28;;;;;;;49.63;30.88;;;;;;;10.16;76.39;98311.14;4038152;86;21093;-87
2022/04/22 14:40:30;;;;;;;41.95;26.52;;;;;;;9.97;75.65;98315.56;4034958;86;21284;-87
2022/04/22 14:46:32;;;;;;;33.98;22.20;;;;;;;9.91;77.24;98319.84;4041207;86;21086;-89
2022/04/22 14:52:33;;;;;;;39.10;22.82;;;;;;;9.68;78.41;98322.88;4009294;87;21246;-88
2022/04/22 14:58:36;;;;;;;40.78;23.90;;;;;;;9.36;78.07;98328.80;3986340;88;21110;-91
2022/04/22 15:04:37;;;;;;;34.15;20.80;;;;;;;9.22;78.95;98328.72;4039719;86;21640;-87
2022/04/22 15:10:39;;;;;;;35.25;20.05;;;;;;;9.13;80.37;98325.55;4049611;86;22287;-88
2022/04/22 15:16:41;;;;;;;31.93;19.02;;;;;;;8.92;80.06;98325.40;3997683;87;21770;-87
2022/04/22 15:29:04;;;;;;;26.70;16.30;;;;;;;8.76;81.94;98324.31;3992237;87;21092;-90
2022/04/22 15:35:07;;;;;;;33.63;17.05;;;;;;;8.69;82.35;98316.06;3980464;87;21102;-86
2022/04/22 15:41:20;;;;;;;27.45;15.90;;;;;;;8.61;82.44;98317.20;3982632;87;21101;-87
2022/04/22 15:47:21;;;;;;;26.00;13.22;;;;;;;8.60;83.51;98316.17;3989126;87;22182;-87
2022/04/22 15:53:23;;;;;;;20.25;12.88;;;;;;;8.49;84.60;98316.70;3993242;87;21059;-90
2022/04/22 15:59:24;;;;;;;19.48;11.95;;;;;;;8.35;84.45;98329.61;3978375;87;22317;-86
2022/04/22 16:05:26;;;;;;;16.27;9.53;;;;;;;8.22;84.74;98332.97;3975439;87;21379;-89
2022/04/22 16:17:49;;;;;;;18.55;8.38;;;;;;;8.02;84.97;98320.70;3993935;87;21096;-88
2022/04/22 16:23:55;;;;;;;12.80;7.50;;;;;;;7.97;84.95;98318.50;4064549;86;21124;-89
2022/04/22 16:29:53;;;;;;;17.98;9.70;;;;;;;8.01;85.47;98324.00;4012187;87;21144;-89
2022/04/22 16:35:54;;;;;;;22.60;15.25;;;;;;;7.98;84.74;98332.92;4015968;87;21069;-87
2022/04/22 16:42:00;;;;;;;18.23;12.68;;;;;;;7.98;85.05;98330.98;4015770;87;21165;-88
2022/04/22 16:48:03;;;;;;;20.90;16.37;;;;;;;7.90;84.96;98344.33;3976818;87;21129;-89
2022/04/22 16:54:05;;;;;;;18.87;13.38;;;;;;;7.79;85.87;98337.97;3987167;88;21612;-87
2022/04/22 17:00:13;;;;;;;24.15;17.02;;;;;;;7.60;85.86;98342.22;3980212;88;21036;-90
2022/04/22 17:06:12;;;;;;;23.05;14.85;;;;;;;7.46;85.92;98343.97;3982887;88;21143;-87
2022/04/22 17:12:14;;;;;;;24.02;14.45;;;;;;;7.35;86.62;98345.20;3976543;88;21170;-89
2022/04/22 17:24:35;;;;;;;18.48;12.05;;;;;;;7.26;88.06;98348.78;3977168;88;21115;-88
2022/04/22 17:30:37;;;;;;;21.20;12.88;;;;;;;7.25;88.45;98349.91;3984454;88;22311;-89
2022/04/22 17:36:39;;;;;;;18.17;12.03;;;;;;;7.24;87.78;98344.84;3979521;88;21131;-88
2022/04/22 17:42:40;;;;;;;20.88;14.55;;;;;;;7.27;88.39;98345.46;3979420;88;21075;-88
2022/04/22 17:48:41;;;;;;;23.00;14.90;;;;;;;7.27;88.44;98344.89;3981932;88;21124;-87
2022/04/22 17:54:43;;;;;;;23.83;15.50;;;;;;;7.24;88.30;98345.63;3977561;88;21088;-90
2022/04/22 18:00:45;;;;;;;22.98;15.05;;;;;;;7.24;88.11;98355.16;3978045;88;21702;-89
2022/04/22 18:06:46;;;;;;;23.15;15.83;;;;;;;7.22;88.09;98360.77;3978372;88;21096;-89
2022/04/22 18:12:48;;;;;;;23.25;14.73;;;;;;;7.24;89.10;98357.09;3976333;88;21076;-88
2022/04/22 18:18:50;;;;;;;22.55;14.20;;;;;;;7.14;88.63;98370.75;3951124;88;22028;-89
2022/04/22 18:24:52;;;;;;;21.37;13.85;;;;;;;7.13;88.90;98367.83;3821117;88;10000127;-87
2022/04/22 18:30:54;;;;;;;23.07;14.53;;;;;;;7.10;88.89;98367.20;3919995;88;21113;-88
2022/04/22 18:36:57;;;;;;;20.52;14.45;;;;;;;7.09;88.76;98370.30;3931882;88;21097;-92
2022/04/22 18:42:59;;;;;;;20.35;14.47;;;;;;;7.07;88.40;98364.42;3925862;88;21142;-89
2022/04/22 18:49:02;;;;;;;20.08;13.93;;;;;;;7.05;88.32;98360.71;3934876;88;21185;-90
2022/04/22 18:55:05;;;;;;;20.68;13.70;;;;;;;7.04;88.42;98360.52;3933990;88;21090;-89
2022/04/22 19:01:07;;;;;;;19.00;12.78;;;;;;;7.03;88.52;98358.92;3926333;88;21150;-89
2022/04/22 19:07:08;;;;;;;14.47;10.72;;;;;;;7.01;88.88;98355.02;3936320;88;21098;-89
2022/04/22 19:13:11;;;;;;;16.27;11.57;;;;;;;7.00;88.56;98358.30;3928842;89;22389;-88
2022/04/22 19:19:12;;;;;;;17.00;11.60;;;;;;;7.02;88.79;98349.77;3960015;87;21167;-88
2022/04/22 19:25:14;;;;;;;17.52;11.93;;;;;;;7.02;88.70;98347.84;3974862;87;22128;-90
2022/04/22 19:31:20;;;;;;;19.17;12.10;;;;;;;6.98;88.53;98345.66;3980323;87;21080;-92
2022/04/22 19:43:41;;;;;;;18.10;11.63;;;;;;;6.95;88.50;98339.59;3985919;87;21444;-92
2022/04/22 19:49:42;;;;;;;19.15;12.98;;;;;;;6.92;88.51;98333.48;3979204;87;21164;-88
2022/04/22 19:55:45;;;;;;;20.85;14.35;;;;;;;6.92;88.66;98335.45;3983421;87;21082;-88
2022/04/22 20:01:47;;;;;;;17.77;12.25;;;;;;;6.88;88.62;98325.07;3981545;87;21108;-86
2022/04/22 20:07:48;;;;;;;21.05;14.05;;;;;;;6.86;88.62;98328.16;3985924;88;22187;-90
2022/04/22 20:13:50;;;;;;;21.42;14.33;;;;;;;6.85;88.64;98328.53;3989241;87;21829;-89
2022/04/22 20:19:51;;;;;;;22.55;14.83;;;;;;;6.85;88.95;98323.08;3934504;87;22091;-89
2022/04/22 20:25:53;;;;;;;20.92;14.23;;;;;;;6.82;88.89;98318.38;3910325;90;21106;-89
2022/04/22 20:31:55;;;;;;;23.73;15.38;;;;;;;6.78;88.86;98310.75;3912456;90;21534;-88
2022/04/22 20:44:17;;;;;;;25.90;16.20;;;;;;;6.80;88.98;98300.27;3904132;90;21145;-88
2022/04/22 20:50:19;;;;;;;21.42;15.30;;;;;;;6.80;88.95;98298.91;3932462;88;21085;-89
2022/04/22 20:56:21;;;;;;;29.55;18.60;;;;;;;6.78;89.06;98292.48;4023331;86;21032;-90
2022/04/22 21:02:23;;;;;;;23.12;14.87;;;;;;;6.76;89.17;98275.76;4011626;86;21633;-88
2022/04/22 21:08:24;;;;;;;25.00;16.32;;;;;;;6.76;89.19;98280.41;4020435;86;21588;-88
2022/04/22 21:14:29;;;;;;;25.88;15.85;;;;;;;6.72;89.14;98274.14;4009524;86;21127;-87
2022/04/22 21:20:31;;;;;;;29.30;17.20;;;;;;;6.72;89.27;98275.50;4001702;86;22416;-88
2022/04/22 21:26:32;;;;;;;32.42;16.82;;;;;;;6.70;89.45;98272.36;3978895;88;21036;-88
2022/04/22 21:32:36;;;;;;;34.78;18.40;;;;;;;6.67;89.35;98271.73;3979125;88;21123;-89
2022/04/22 21:38:39;;;;;;;29.60;17.67;;;;;;;6.68;89.55;98273.28;3976619;88;21686;-88
2022/04/22 21:44:40;;;;;;;36.13;18.48;;;;;;;6.63;89.38;98274.39;3977188;88;21115;-89
2022/04/22 21:50:42;;;;;;;25.37;15.83;;;;;;;6.59;89.50;98283.08;3977008;88;22093;-89
2022/04/22 21:56:43;;;;;;;32.20;17.77;;;;;;;6.59;89.41;98286.37;3977748;88;21057;-87
2022/04/22 22:02:44;;;;;;;28.20;16.55;;;;;;;6.57;89.55;98279.94;3977891;88;22592;-87
2022/04/22 22:08:46;;;;;;;28.47;17.60;;;;;;;6.59;89.76;98274.12;3977325;88;21091;-93
2022/04/22 22:14:47;;;;;;;29.65;17.60;;;;;;;6.57;89.62;98274.50;3978611;88;21708;-89
2022/04/22 22:20:49;;;;;;;29.30;17.15;;;;;;;6.57;89.74;98274.50;3978404;88;21096;-87
2022/04/22 22:26:50;;;;;;;26.10;16.55;;;;;;;6.55;89.72;98270.55;3976692;88;21089;-90
2022/04/22 22:32:51;;;;;;;25.60;15.65;;;;;;;6.54;89.84;98272.51;3977868;88;21100;-89
2022/04/22 22:38:53;;;;;;;23.47;15.38;;;;;;;6.55;89.87;98273.27;3977903;88;21088;-91
2022/04/22 22:44:56;;;;;;;25.08;15.98;;;;;;;6.54;89.67;98263.56;3978987;88;21388;-91
2022/04/22 22:51:02;;;;;;;23.87;15.70;;;;;;;6.54;90.00;98259.48;3977728;88;21092;-90
2022/04/22 22:57:04;;;;;;;31.13;17.60;;;;;;;6.51;89.73;98251.49;3975555;88;21150;-89
2022/04/22 23:03:08;;;;;;;23.85;15.13;;;;;;;6.50;89.68;98253.22;3975837;88;21065;-89
2022/04/22 23:09:09;;;;;;;25.85;15.38;;;;;;;6.51;89.70;98248.77;3980139;88;21105;-88
2022/04/22 23:15:14;;;;;;;28.17;17.17;;;;;;;6.49;89.66;98245.63;3977568;88;21095;-88
2022/04/22 23:21:17;;;;;;;20.77;14.53;;;;;;;6.48;89.59;98245.42;3983148;87;21199;-88
2022/04/22 23:27:19;;;;;;;21.82;14.35;;;;;;;6.45;89.53;98244.80;3987969;88;21089;-90
2022/04/22 23:33:21;;;;;;;26.27;14.83;;;;;;;6.44;89.58;98241.09;3992004;88;21642;-89
2022/04/22 23:39:26;;;;;;;23.32;15.38;;;;;;;6.43;89.52;98236.22;3990409;88;21690;-87
2022/04/22 23:45:29;;;;;;;29.63;17.55;;;;;;;6.44;89.52;98228.26;3988823;88;21075;-88
2022/04/22 23:51:31;;;;;;;26.52;17.52;;;;;;;6.44;89.40;98235.05;3990799;87;21103;-86
2022/04/22 23:57:32;;;;;;;26.33;16.85;;;;;;;6.42;89.37;98225.14;3987935;88;21122;-87
